Time;durP1;ratioP1;P1;durP2;ratioP2;P2;SDS_P1;SDS_P2;PMS_P1;PMS_P2;Temp;Humidity;BMP_temperature;BMP_pressure;BME280_temperature;BME280_humidity;BME280_pressure;Samples;Min_cycle;Max_cycle;Signal;HPM_P1;HPM_P2
2023/09/25 00:01:52;;;;;;;1.30;1.20;;;15.80;95.30;;;;;;6241264;23;20464;-84
2023/09/25 00:04:28;;;;;;;1.47;1.33;;;16.10;95.10;;;;;;6214149;23;20486;-86
2023/09/25 00:06:55;;;;;;;1.30;1.20;;;15.90;94.80;;;;;;6215060;23;20500;-86
2023/09/25 00:09:29;;;;;;;1.70;1.60;;;15.80;95.10;;;;;;6217939;23;20436;-86
2023/09/25 00:12:02;;;;;;;2.40;1.37;;;15.90;95.30;;;;;;6234116;22;20456;-87
2023/09/25 00:14:37;;;;;;;1.40;1.30;;;15.90;95.20;;;;;;6255706;23;20412;-86
2023/09/25 00:17:07;;;;;;;1.30;1.07;;;15.70;95.30;;;;;;6215426;23;20377;-86
2023/09/25 00:19:38;;;;;;;1.57;1.47;;;15.60;95.60;;;;;;6215916;23;20425;-88
2023/09/25 00:22:15;;;;;;;2.10;1.30;;;15.60;95.80;;;;;;6220087;23;20488;-84
2023/09/25 00:24:49;;;;;;;1.27;1.20;;;15.50;96.20;;;;;;6213779;23;20440;-87
2023/09/25 00:27:20;;;;;;;1.73;1.40;;;15.50;96.40;;;;;;6219684;23;20501;-86
2023/09/25 00:29:50;;;;;;;1.60;1.30;;;15.50;96.50;;;;;;6218828;23;20440;-88
2023/09/25 00:32:17;;;;;;;1.50;1.40;;;15.40;96.40;;;;;;6220888;23;20464;-86
2023/09/25 00:34:45;;;;;;;1.50;1.40;;;15.50;96.30;;;;;;6220722;23;20413;-85
2023/09/25 00:37:12;;;;;;;1.93;1.37;;;15.50;96.30;;;;;;6218020;23;20452;-87
2023/09/25 00:39:44;;;;;;;4.37;1.90;;;15.50;96.40;;;;;;6210254;23;20413;-84
2023/09/25 00:42:11;;;;;;;2.80;1.10;;;15.40;96.40;;;;;;6210616;23;20415;-85
2023/09/25 00:44:47;;;;;;;1.40;1.30;;;15.30;96.60;;;;;;6215819;23;20420;-83
2023/09/25 00:47:19;;;;;;;1.80;1.50;;;15.60;97.00;;;;;;6212712;23;20459;-84
2023/09/25 00:49:46;;;;;;;1.83;1.40;;;15.20;97.00;;;;;;6215287;23;20468;-87
2023/09/25 00:52:14;;;;;;;1.90;1.40;;;15.20;97.10;;;;;;6207251;23;20719;-87
2023/09/25 00:54:42;;;;;;;2.60;1.30;;;15.20;97.20;;;;;;6206870;23;21133;-85
2023/09/25 00:57:12;;;;;;;2.03;1.43;;;15.20;97.20;;;;;;6207681;23;20492;-85
2023/09/25 00:59:40;;;;;;;1.40;1.30;;;15.10;97.40;;;;;;6208453;23;20428;-85
2023/09/25 01:02:07;;;;;;;1.47;1.37;;;15.10;97.30;;;;;;6207592;23;20486;-84
2023/09/25 01:04:33;;;;;;;2.10;1.47;;;15.00;97.40;;;;;;6205757;23;20842;-87
2023/09/25 01:07:01;;;;;;;1.63;1.53;;;15.10;97.40;;;;;;6204000;23;20433;-85
2023/09/25 01:09:28;;;;;;;3.20;1.70;;;15.20;97.70;;;;;;6204148;23;20775;-86
2023/09/25 01:11:56;;;;;;;2.17;1.30;;;15.00;97.70;;;;;;6209849;23;20423;-87
2023/09/25 01:14:27;;;;;;;2.43;1.40;;;15.00;97.60;;;;;;6234895;23;20415;-85
2023/09/25 01:16:54;;;;;;;1.27;1.20;;;15.00;97.70;;;;;;6208724;23;20439;-84
2023/09/25 01:19:25;;;;;;;1.80;1.47;;;15.00;97.70;;;;;;6234796;23;20901;-87
2023/09/25 01:21:55;;;;;;;2.70;1.80;;;15.30;97.80;;;;;;6234344;23;20423;-86
2023/09/25 01:24:23;;;;;;;2.00;1.53;;;15.10;97.60;;;;;;6209069;23;20415;-87
2023/09/25 01:26:50;;;;;;;1.40;1.30;;;15.10;97.50;;;;;;6211873;23;20439;-85
2023/09/25 01:29:24;;;;;;;1.50;1.40;;;15.00;97.50;;;;;;6216217;23;20500;-87
2023/09/25 01:31:51;;;;;;;3.60;1.47;;;14.90;97.80;;;;;;6213845;23;20380;-85
2023/09/25 01:34:18;;;;;;;2.50;1.73;;;14.90;97.90;;;;;;6211838;23;20411;-87
2023/09/25 01:36:45;;;;;;;1.23;1.13;;;14.80;98.00;;;;;;6211364;23;20448;-86
2023/09/25 01:39:12;;;;;;;1.60;1.50;;;14.80;98.10;;;;;;6237146;23;20466;-86
2023/09/25 01:41:39;;;;;;;2.33;1.60;;;14.80;98.20;;;;;;6209878;23;20631;-86
2023/09/25 01:44:09;;;;;;;5.40;1.60;;;14.90;98.30;;;;;;6210857;23;20432;-87
2023/09/25 01:46:36;;;;;;;2.20;1.60;;;14.50;98.30;;;;;;6236246;22;21085;-87
2023/09/25 01:49:06;;;;;;;1.67;1.30;;;14.80;98.50;;;;;;6208707;23;20440;-87
2023/09/25 01:51:33;;;;;;;1.97;1.50;;;14.70;98.30;;;;;;6209020;23;20414;-86
2023/09/25 01:54:09;;;;;;;1.57;1.47;;;14.90;98.50;;;;;;6210000;23;20449;-86
2023/09/25 01:56:36;;;;;;;1.80;1.70;;;15.10;98.00;;;;;;6212667;23;20424;-88
2023/09/25 01:59:06;;;;;;;1.67;1.43;;;15.10;97.90;;;;;;6240926;23;20412;-86
2023/09/25 02:01:36;;;;;;;3.00;2.13;;;14.90;97.90;;;;;;6241225;23;20411;-85
2023/09/25 02:04:03;;;;;;;1.37;1.27;;;15.00;98.00;;;;;;6212709;23;20454;-84
2023/09/25 02:06:30;;;;;;;1.53;1.43;;;15.00;97.80;;;;;;6210592;23;20439;-86
2023/09/25 02:08:57;;;;;;;1.70;1.60;;;15.00;97.70;;;;;;6208510;23;20439;-86
2023/09/25 02:11:27;;;;;;;1.40;1.30;;;14.90;97.90;;;;;;6219447;23;20420;-87
2023/09/25 02:13:57;;;;;;;1.83;1.73;;;15.00;98.20;;;;;;6209009;23;20431;-86
2023/09/25 02:16:27;;;;;;;1.93;1.60;;;15.00;98.20;;;;;;6210984;23;20508;-86
2023/09/25 02:18:54;;;;;;;1.37;1.27;;;15.00;98.00;;;;;;6235282;23;20404;-86
2023/09/25 02:21:26;;;;;;;1.50;1.30;;;15.20;98.30;;;;;;6235981;23;21155;-87
2023/09/25 02:23:53;;;;;;;2.10;1.70;;;15.20;98.30;;;;;;6235348;23;20921;-86
2023/09/25 02:26:23;;;;;;;1.40;1.30;;;15.10;98.30;;;;;;6234951;22;20431;-85
2023/09/25 02:28:53;;;;;;;2.10;1.90;;;15.10;98.20;;;;;;6208542;23;20451;-85
2023/09/25 02:31:27;;;;;;;1.50;1.40;;;15.20;97.80;;;;;;6236475;23;20448;-85
2023/09/25 02:33:58;;;;;;;2.10;1.90;;;15.10;97.60;;;;;;6208184;23;20967;-85
2023/09/25 02:36:27;;;;;;;1.70;1.60;;;15.40;97.80;;;;;;6209191;23;20432;-85
2023/09/25 02:38:53;;;;;;;2.90;1.53;;;15.30;97.70;;;;;;6234550;23;20518;-85
2023/09/25 02:41:20;;;;;;;2.90;1.60;;;15.20;97.80;;;;;;6207767;23;20444;-84
2023/09/25 02:43:47;;;;;;;1.30;1.20;;;15.10;97.80;;;;;;6234431;23;20471;-84
2023/09/25 02:46:17;;;;;;;1.50;1.40;;;15.10;98.00;;;;;;6235622;22;20463;-86
2023/09/25 02:48:43;;;;;;;1.57;1.20;;;15.00;98.00;;;;;;6238453;23;20736;-87
2023/09/25 02:51:12;;;;;;;1.33;1.23;;;14.90;97.80;;;;;;6221522;23;20400;-86
2023/09/25 02:53:39;;;;;;;1.40;1.30;;;15.20;97.90;;;;;;6220796;23;20408;-87
2023/09/25 02:56:06;;;;;;;1.67;1.43;;;15.20;97.40;;;;;;6246180;22;20428;-86
2023/09/25 02:58:33;;;;;;;1.63;1.30;;;15.10;97.50;;;;;;6243051;23;20408;-86
2023/09/25 03:01:00;;;;;;;2.70;1.90;;;15.00;97.70;;;;;;6212117;23;20412;-86
2023/09/25 03:03:29;;;;;;;1.63;1.30;;;14.90;97.90;;;;;;6210527;23;20953;-85
2023/09/25 03:05:56;;;;;;;1.90;1.67;;;14.90;98.20;;;;;;6211896;23;20432;-86
2023/09/25 03:08:23;;;;;;;2.63;1.20;;;14.90;98.30;;;;;;6210908;23;20417;-86
2023/09/25 03:10:50;;;;;;;2.03;1.47;;;14.90;98.20;;;;;;6210540;23;20400;-87
2023/09/25 03:13:17;;;;;;;1.63;1.30;;;15.10;98.10;;;;;;6210101;23;20526;-85
2023/09/25 03:15:44;;;;;;;1.47;1.37;;;15.20;97.80;;;;;;6210088;23;20436;-87
2023/09/25 03:18:18;;;;;;;3.43;3.13;;;15.30;97.60;;;;;;6211234;23;20416;-88
2023/09/25 03:20:48;;;;;;;1.37;1.27;;;15.40;97.50;;;;;;6211076;23;20404;-87
2023/09/25 03:23:18;;;;;;;1.50;1.40;;;15.20;97.30;;;;;;6238025;23;20422;-87
2023/09/25 03:25:49;;;;;;;2.07;1.40;;;15.30;97.60;;;;;;6216949;23;20483;-86
2023/09/25 03:28:16;;;;;;;1.90;1.70;;;15.10;97.60;;;;;;6223854;23;20416;-88
2023/09/25 03:30:48;;;;;;;1.60;1.50;;;15.00;97.80;;;;;;6233151;22;20447;-86
2023/09/25 03:33:31;;;;;;;1.40;1.37;;;15.00;98.10;;;;;;6239738;23;20399;-88
2023/09/25 03:36:01;;;;;;;1.53;1.43;;;15.00;98.30;;;;;;6235465;22;20515;-88
2023/09/25 03:38:32;;;;;;;2.50;1.50;;;15.10;98.50;;;;;;6219790;23;20465;-87
2023/09/25 03:41:04;;;;;;;1.63;1.40;;;14.80;98.50;;;;;;6237906;23;20518;-86
2023/09/25 03:43:34;;;;;;;1.40;1.30;;;14.90;98.60;;;;;;6212054;23;20427;-86
2023/09/25 03:46:02;;;;;;;1.50;1.40;;;14.90;98.50;;;;;;6238372;22;20485;-87
2023/09/25 03:48:31;;;;;;;1.70;1.60;;;15.30;98.30;;;;;;6212145;23;20413;-86
2023/09/25 03:51:00;;;;;;;1.90;1.50;;;15.10;97.90;;;;;;6210109;23;20407;-85
2023/09/25 03:53:27;;;;;;;1.43;1.33;;;15.10;97.70;;;;;;6208990;23;20485;-86
2023/09/25 03:55:54;;;;;;;2.47;1.87;;;15.00;97.80;;;;;;6209825;23;20448;-85
2023/09/25 03:58:31;;;;;;;1.50;1.40;;;15.10;97.80;;;;;;6210864;23;20412;-85
2023/09/25 04:01:05;;;;;;;2.13;1.50;;;15.10;97.80;;;;;;6209213;23;20421;-87
2023/09/25 04:03:32;;;;;;;2.40;1.30;;;14.90;97.80;;;;;;6210156;23;20874;-85
2023/09/25 04:06:03;;;;;;;1.60;1.33;;;14.70;97.80;;;;;;6208878;23;20624;-86
2023/09/25 04:08:33;;;;;;;1.83;1.73;;;14.70;98.00;;;;;;6211911;23;20897;-87
2023/09/25 04:11:03;;;;;;;1.63;1.53;;;14.60;97.90;;;;;;6228611;23;20466;-86
2023/09/25 04:13:31;;;;;;;2.27;1.70;;;14.70;98.10;;;;;;6221522;23;20478;-87
2023/09/25 04:16:02;;;;;;;3.70;1.50;;;14.60;98.10;;;;;;6236752;22;20527;-86
2023/09/25 04:18:34;;;;;;;3.83;1.80;;;14.50;98.30;;;;;;6208874;23;20384;-85
2023/09/25 04:21:02;;;;;;;2.50;1.60;;;14.70;98.00;;;;;;6209609;23;20467;-88
2023/09/25 04:23:33;;;;;;;1.73;1.63;;;14.70;98.10;;;;;;6231908;22;20419;-87
2023/09/25 04:26:00;;;;;;;1.67;1.57;;;14.60;98.10;;;;;;6262309;22;20786;-87
2023/09/25 04:28:32;;;;;;;2.17;1.60;;;14.90;97.70;;;;;;6263584;22;20405;-87
2023/09/25 04:31:04;;;;;;;3.80;1.40;;;14.90;97.60;;;;;;6263498;22;20458;-87
2023/09/25 04:33:35;;;;;;;1.73;1.63;;;14.90;97.50;;;;;;6238735;22;20407;-86
2023/09/25 04:36:03;;;;;;;2.57;1.40;;;14.80;97.70;;;;;;6218622;23;20447;-85
2023/09/25 04:38:31;;;;;;;3.23;1.70;;;14.80;97.90;;;;;;6215521;23;20412;-86
2023/09/25 04:41:10;;;;;;;2.00;1.70;;;14.70;97.90;;;;;;6216044;23;20462;-86
2023/09/25 04:43:47;;;;;;;2.30;2.03;;;14.80;98.20;;;;;;6244296;23;20422;-86
2023/09/25 04:46:51;;;;;;;2.67;1.60;;;14.90;98.10;;;;;;6225078;23;20542;-87
2023/09/25 04:49:24;;;;;;;2.10;1.87;;;14.70;98.20;;;;;;6238727;23;20795;-87
2023/09/25 04:52:03;;;;;;;3.70;1.60;;;14.70;98.50;;;;;;6242696;23;20449;-86
2023/09/25 04:54:40;;;;;;;1.90;1.80;;;14.70;98.70;;;;;;6217491;23;20407;-87
2023/09/25 04:57:11;;;;;;;2.90;2.20;;;14.60;98.80;;;;;;6215326;23;20502;-86
2023/09/25 04:59:54;;;;;;;2.50;2.00;;;14.70;99.10;;;;;;6215056;23;20411;-88
2023/09/25 05:02:32;;;;;;;2.20;1.97;;;14.70;98.80;;;;;;6238995;23;20438;-87
2023/09/25 05:05:17;;;;;;;3.30;2.60;;;14.80;98.80;;;;;;6212512;22;20443;-86
2023/09/25 05:08:01;;;;;;;;;;;;;;;;;;;;;
2023/09/25 05:10:31;;;;;;;2.10;1.90;;;14.70;98.80;;;;;;6237558;23;20440;-85
2023/09/25 05:13:30;;;;;;;1.80;1.70;;;14.70;99.00;;;;;;6213872;23;20408;-88
2023/09/25 05:16:05;;;;;;;2.23;1.80;;;14.70;99.20;;;;;;6215717;23;20431;-87
2023/09/25 05:18:39;;;;;;;4.90;2.43;;;14.60;99.50;;;;;;6211187;23;20865;-88
2023/09/25 05:21:26;;;;;;;2.67;2.30;;;14.60;99.40;;;;;;6213397;23;20412;-87
2023/09/25 05:24:02;;;;;;;4.20;2.40;;;14.70;99.60;;;;;;6211953;23;20408;-88
2023/09/25 05:26:51;;;;;;;3.00;2.23;;;14.70;99.20;;;;;;6187555;23;20423;-86
2023/09/25 05:29:25;;;;;;;5.13;2.80;;;14.70;99.00;;;;;;6213318;23;20940;-86
2023/09/25 05:32:13;;;;;;;6.70;3.20;;;14.50;99.10;;;;;;6169521;23;20400;-86
2023/09/25 05:34:43;;;;;;;3.53;3.23;;;14.50;99.50;;;;;;6231095;22;20464;-86
2023/09/25 05:37:35;;;;;;;8.40;3.60;;;14.70;99.50;;;;;;6232709;23;20462;-87
2023/09/25 05:40:31;;;;;;;8.80;4.10;;;14.50;99.00;;;;;;6252869;22;20415;-85
2023/09/25 05:43:06;;;;;;;8.00;4.43;;;14.50;98.90;;;;;;6217485;23;20418;-86
2023/09/25 05:48:33;;;;;;;7.27;4.70;;;14.40;98.80;;;;;;6239354;23;20520;-86
2023/09/25 05:51:40;;;;;;;6.50;4.53;;;14.40;98.70;;;;;;6228471;23;20505;-84
2023/09/25 05:57:52;;;;;;;5.30;3.43;;;14.30;99.30;;;;;;6272278;22;20518;-84
2023/09/25 06:01:00;;;;;;;5.47;3.63;;;14.20;99.20;;;;;;6249519;22;20460;-86
2023/09/25 06:04:27;;;;;;;4.60;3.30;;;14.40;99.30;;;;;;6129194;23;20403;-86
2023/09/25 06:07:50;;;;;;;4.00;3.63;;;14.50;99.10;;;;;;6101319;23;20416;-86
2023/09/25 06:11:03;;;;;;;3.57;3.30;;;14.60;98.80;;;;;;6120359;23;20819;-86
2023/09/25 06:14:32;;;;;;;5.50;2.87;;;14.50;98.80;;;;;;6126615;23;20639;-85
2023/09/25 06:18:09;;;;;;;;;;;;;;;;;;;;;
2023/09/25 06:21:19;;;;;;;3.30;2.40;;;14.80;98.60;;;;;;6171827;22;20410;-86
2023/09/25 06:24:28;;;;;;;3.37;2.17;;;14.90;98.50;;;;;;6118799;23;21156;-86
2023/09/25 06:27:51;;;;;;;3.23;2.90;;;14.90;98.60;;;;;;6214387;23;20435;-82
2023/09/25 06:38:25;;;;;;;4.73;2.70;;;15.00;98.40;;;;;;6086713;23;20403;-86
2023/09/25 06:48:15;;;;;;;4.97;2.77;;;15.30;98.70;;;;;;6007165;23;20504;-85
2023/09/25 06:51:22;;;;;;;;;;;;;;;;;;;;;
2023/09/25 06:54:18;;;;;;;;;;;;;;;;;;;;;
2023/09/25 06:57:03;;;;;;;9.60;3.23;;;15.60;97.20;;;;;;6013822;23;20529;-87
2023/09/25 06:59:54;;;;;;;;;;;;;;;;;;;;;
2023/09/25 07:02:49;;;;;;;6.70;2.37;;;15.60;96.50;;;;;;6097324;23;20393;-85
2023/09/25 07:06:23;;;;;;;2.60;1.77;;;15.60;96.30;;;;;;6102858;23;20548;-84
2023/09/25 07:09:32;;;;;;;3.60;1.60;;;16.10;96.30;;;;;;6101632;23;20425;-85
2023/09/25 07:23:00;;;;;;;1.73;1.50;;;23.00;75.00;;;;;;6192228;23;20409;-86
2023/09/25 07:31:26;;;;;;;2.53;1.67;;;23.10;66.70;;;;;;6279546;22;20476;-85
2023/09/25 08:10:48;;;;;;;;;;;;;;;;;;;;;
2023/09/25 08:17:02;;;;;;;1.40;1.30;;;18.00;86.20;;;;;;6246452;22;20478;-86
2023/09/25 08:19:33;;;;;;;2.00;1.77;;;17.90;86.40;;;;;;6222516;23;20790;-85
2023/09/25 08:22:43;;;;;;;2.13;2.03;;;17.90;87.40;;;;;;6221025;23;20396;-87
2023/09/25 08:25:42;;;;;;;1.93;1.80;;;17.80;87.80;;;;;;6221017;23;20446;-86
2023/09/25 08:28:17;;;;;;;1.40;1.30;;;18.00;87.00;;;;;;6245417;23;20753;-86
2023/09/25 08:30:52;;;;;;;1.60;1.50;;;18.10;85.50;;;;;;6219030;23;21072;-87
2023/09/25 08:33:40;;;;;;;1.87;1.70;;;18.10;85.30;;;;;;6205196;23;20404;-86
2023/09/25 08:36:47;;;;;;;1.73;1.63;;;18.20;86.10;;;;;;6190003;23;21110;-87
2023/09/25 08:39:25;;;;;;;2.00;1.80;;;18.20;85.40;;;;;;6218482;23;20408;-85
2023/09/25 08:42:21;;;;;;;2.10;1.47;;;18.20;85.80;;;;;;6221538;23;20392;-87
2023/09/25 08:45:04;;;;;;;2.40;1.50;;;18.40;84.80;;;;;;6241997;22;20426;-85
2023/09/25 08:48:06;;;;;;;;;;;;;;;;;;;;;
2023/09/25 08:50:51;;;;;;;2.00;1.40;;;18.40;85.10;;;;;;6229019;23;20432;-86
2023/09/25 08:54:08;;;;;;;1.40;1.30;;;18.50;83.70;;;;;;6244471;23;20462;-87
2023/09/25 08:57:27;;;;;;;1.70;1.60;;;18.60;83.60;;;;;;6237119;22;20405;-87
2023/09/25 09:00:26;;;;;;;4.00;1.60;;;18.70;83.80;;;;;;6228514;22;20482;-86
2023/09/25 09:03:02;;;;;;;2.10;1.57;;;18.70;83.00;;;;;;6240208;22;20387;-87
2023/09/25 09:06:17;;;;;;;2.10;1.90;;;18.40;84.70;;;;;;6240035;22;20420;-85
2023/09/25 09:09:10;;;;;;;2.70;1.70;;;18.30;85.10;;;;;;6099612;23;20417;-85
2023/09/25 09:12:00;;;;;;;2.40;1.50;;;18.80;84.40;;;;;;6148367;23;20517;-85
2023/09/25 09:21:44;;;;;;;1.77;1.30;;;18.60;82.90;;;;;;6087153;23;20464;-84
2023/09/25 09:24:41;;;;;;;2.17;1.50;;;18.90;83.30;;;;;;6062999;23;21159;-84
2023/09/25 09:27:19;;;;;;;1.57;1.47;;;18.90;82.50;;;;;;6206413;23;20419;-86
2023/09/25 09:30:02;;;;;;;2.23;1.80;;;19.10;82.40;;;;;;6203531;23;21397;-84
2023/09/25 09:33:44;;;;;;;1.90;1.70;;;19.30;82.00;;;;;;6211866;23;20411;-86
2023/09/25 09:42:31;;;;;;;2.63;1.50;;;19.60;80.70;;;;;;6243163;22;20467;-86
2023/09/25 09:53:23;;;;;;;1.67;1.43;;;23.10;64.10;;;;;;6126874;23;20487;-87
2023/09/25 09:57:00;;;;;;;2.67;1.63;;;23.90;59.90;;;;;;6167919;23;20413;-86
2023/09/25 10:00:23;;;;;;;2.03;1.30;;;23.30;60.70;;;;;;6093037;23;20883;-86
2023/09/25 10:07:33;;;;;;;1.30;1.20;;;25.70;57.10;;;;;;6084595;23;20404;-83
2023/09/25 10:10:52;;;;;;;;;;;;;;;;;;;;;
2023/09/25 10:14:11;;;;;;;1.70;1.60;;;25.90;54.30;;;;;;6245436;22;20468;-84
2023/09/25 10:20:02;;;;;;;2.40;1.57;;;25.80;53.70;;;;;;6249160;22;20463;-88
2023/09/25 10:23:30;;;;;;;2.20;1.40;;;25.70;53.80;;;;;;6172781;23;20391;-87
2023/09/25 10:27:06;;;;;;;2.20;1.53;;;24.80;54.10;;;;;;6202973;23;20396;-86
2023/09/25 10:30:33;;;;;;;;;;;;;;;;;;;;;
2023/09/25 10:37:27;;;;;;;2.23;1.70;;;24.30;55.60;;;;;;6214390;22;20495;-85
2023/09/25 10:40:00;;;;;;;1.43;1.33;;;24.70;55.30;;;;;;6173576;23;20459;-84
2023/09/25 10:42:30;;;;;;;1.50;1.20;;;25.00;54.50;;;;;;6184857;23;20397;-86
2023/09/25 10:45:41;;;;;;;1.33;1.23;;;24.60;54.80;;;;;;6190438;23;20440;-85
2023/09/25 10:48:32;;;;;;;1.30;1.13;;;24.90;54.30;;;;;;6182789;23;20469;-85
2023/09/25 10:51:22;;;;;;;2.30;1.60;;;24.10;55.10;;;;;;6181384;23;20468;-86
2023/09/25 10:54:06;;;;;;;2.50;1.70;;;24.50;54.30;;;;;;6177018;23;20401;-85
2023/09/25 10:56:41;;;;;;;1.17;1.07;;;24.40;53.70;;;;;;6208726;23;20428;-84
2023/09/25 10:59:13;;;;;;;1.37;1.10;;;25.40;51.00;;;;;;6186264;23;20508;-85
2023/09/25 11:01:43;;;;;;;1.50;1.10;;;25.90;50.70;;;;;;6184023;23;20427;-86
2023/09/25 11:04:28;;;;;;;1.73;1.40;;;26.00;50.00;;;;;;6209829;23;20423;-85
2023/09/25 11:07:07;;;;;;;1.33;1.10;;;25.30;49.90;;;;;;6210631;23;20818;-85
2023/09/25 11:09:52;;;;;;;2.30;1.70;;;25.70;50.10;;;;;;6184408;23;20428;-86
2023/09/25 11:12:30;;;;;;;1.40;1.30;;;25.20;49.90;;;;;;6184306;23;20467;-85
2023/09/25 11:15:08;;;;;;;1.87;1.30;;;25.40;48.80;;;;;;6207033;23;20520;-86
2023/09/25 11:17:57;;;;;;;1.50;1.40;;;25.20;49.10;;;;;;6196688;23;20413;-86
2023/09/25 11:20:30;;;;;;;1.30;1.20;;;25.90;48.60;;;;;;6230892;22;20475;-86
2023/09/25 11:26:03;;;;;;;1.40;1.10;;;25.20;47.40;;;;;;6224603;23;20425;-88
2023/09/25 11:28:44;;;;;;;1.30;1.20;;;24.70;48.10;;;;;;6210148;23;20404;-86
2023/09/25 11:31:33;;;;;;;1.30;1.10;;;24.70;48.40;;;;;;6196957;23;20528;-85
2023/09/25 11:34:59;;;;;;;1.50;1.30;;;25.40;47.70;;;;;;6195907;23;20408;-85
2023/09/25 11:38:28;;;;;;;;;;;;;;;;;;;;;
2023/09/25 11:41:30;;;;;;;1.60;1.40;;;25.40;48.00;;;;;;6182989;23;20436;-86
2023/09/25 11:44:18;;;;;;;2.97;1.27;;;26.10;46.80;;;;;;6192231;23;20417;-84
2023/09/25 11:50:37;;;;;;;2.03;1.20;;;25.90;46.60;;;;;;6215987;23;20417;-85
2023/09/25 11:53:22;;;;;;;1.20;1.10;;;25.90;46.70;;;;;;6215610;23;20505;-85
2023/09/25 11:56:13;;;;;;;2.00;1.30;;;25.90;46.80;;;;;;6205075;23;20423;-88
2023/09/25 11:59:30;;;;;;;1.50;1.30;;;26.10;46.50;;;;;;6214950;23;20447;-86
2023/09/25 12:02:14;;;;;;;1.40;1.20;;;25.80;46.50;;;;;;6209682;23;20805;-85
2023/09/25 12:05:06;;;;;;;1.10;0.97;;;26.30;46.40;;;;;;6206064;23;20401;-84
2023/09/25 12:07:44;;;;;;;1.27;1.17;;;26.50;45.90;;;;;;6035317;23;20417;-85
2023/09/25 12:10:37;;;;;;;2.23;1.27;;;26.30;46.00;;;;;;6044869;23;20468;-86
2023/09/25 12:13:21;;;;;;;1.20;1.10;;;26.30;46.30;;;;;;6037507;23;20413;-87
2023/09/25 12:16:00;;;;;;;4.47;1.80;;;26.10;46.50;;;;;;6059448;23;20468;-83
2023/09/25 12:19:30;;;;;;;1.40;1.30;;;26.40;46.10;;;;;;6039006;23;20435;-83
2023/09/25 12:22:28;;;;;;;;;;;;;;;;;;;;;
2023/09/25 12:25:23;;;;;;;3.47;1.20;;;26.00;46.50;;;;;;6096065;23;20463;-84
2023/09/25 12:27:58;;;;;;;1.20;1.07;;;26.50;45.40;;;;;;6193855;23;20499;-85
2023/09/25 12:34:58;;;;;;;1.50;1.30;;;26.30;45.60;;;;;;6097677;23;20409;-84
2023/09/25 12:38:06;;;;;;;2.50;1.60;;;26.20;45.60;;;;;;6132320;23;20418;-85
2023/09/25 12:41:34;;;;;;;1.70;1.20;;;26.30;46.40;;;;;;6129210;23;20384;-86
2023/09/25 12:52:21;;;;;;;1.70;1.60;;;26.60;46.10;;;;;;6061259;23;20459;-85
2023/09/25 13:09:10;;;;;;;;;;;;;;;;;;;;;
2023/09/25 13:12:05;;;;;;;1.77;1.60;;;26.50;47.10;;;;;;6240795;23;20456;-86
2023/09/25 13:19:05;;;;;;;1.43;1.33;;;26.40;47.30;;;;;;6227343;23;20404;-84
2023/09/25 13:21:49;;;;;;;1.37;1.23;;;26.50;47.30;;;;;;6200452;23;21275;-85
2023/09/25 13:25:33;;;;;;;2.00;1.30;;;26.00;48.40;;;;;;6243537;23;20407;-88
2023/09/25 13:28:46;;;;;;;1.57;1.10;;;25.60;48.30;;;;;;6221276;23;21019;-88
2023/09/25 14:25:31;;;;;;;1.93;1.47;;;26.30;48.90;;;;;;5531284;22;17927186;-86
2023/09/25 14:28:44;;;;;;;2.30;1.33;;;26.00;49.10;;;;;;6265888;22;20206;-86
2023/09/25 14:31:26;;;;;;;1.23;1.13;;;25.90;50.00;;;;;;6310007;22;20413;-86
2023/09/25 14:34:02;;;;;;;1.70;1.60;;;25.90;50.10;;;;;;6307352;22;20436;-85
2023/09/25 14:36:43;;;;;;;2.07;1.67;;;25.60;50.60;;;;;;6307525;22;20512;-87
2023/09/25 14:39:31;;;;;;;2.40;1.40;;;25.60;50.50;;;;;;6308701;22;20774;-83
2023/09/25 14:42:09;;;;;;;2.00;1.40;;;25.30;50.80;;;;;;6308360;22;20462;-86
2023/09/25 14:44:47;;;;;;;1.33;1.23;;;25.50;50.60;;;;;;6312451;22;20528;-84
2023/09/25 14:47:27;;;;;;;1.50;1.40;;;25.70;49.90;;;;;;6311252;22;20412;-85
2023/09/25 14:50:28;;;;;;;2.13;1.37;;;25.50;50.30;;;;;;6309852;22;20412;-87
2023/09/25 14:53:04;;;;;;;1.93;1.30;;;25.40;50.00;;;;;;6312290;22;20788;-87
2023/09/25 14:56:06;;;;;;;3.00;1.50;;;25.20;50.20;;;;;;6325255;22;20421;-86
2023/09/25 15:14:14;;;;;;;3.00;1.27;;;25.10;51.60;;;;;;6219757;22;20483;-85
2023/09/25 15:21:10;;;;;;;1.13;1.03;;;24.90;52.60;;;;;;6342554;22;20674;-87
2023/09/25 15:24:03;;;;;;;2.97;1.57;;;24.50;53.10;;;;;;6359119;22;20714;-87
2023/09/25 16:01:16;;;;;;;2.37;1.63;;;24.80;52.60;;;;;;6110603;23;21060;-87
2023/09/25 16:04:38;;;;;;;2.40;1.50;;;24.80;52.80;;;;;;6106323;23;20476;-84
2023/09/25 16:07:06;;;;;;;2.03;1.23;;;25.00;53.00;;;;;;6154769;23;20530;-87
2023/09/25 16:09:36;;;;;;;2.63;1.50;;;25.00;52.20;;;;;;6253621;23;20524;-84
2023/09/25 16:12:46;;;;;;;1.30;1.20;;;24.80;52.50;;;;;;6214936;23;20546;-86
2023/09/25 16:16:06;;;;;;;1.47;1.37;;;24.80;52.50;;;;;;6209869;23;20444;-86
2023/09/25 16:18:50;;;;;;;2.40;1.43;;;24.80;51.90;;;;;;6244178;23;20414;-87
2023/09/25 16:21:44;;;;;;;1.70;1.60;;;24.50;52.40;;;;;;6211244;23;20471;-86
2023/09/25 16:24:25;;;;;;;4.17;1.50;;;24.20;52.80;;;;;;6214594;23;20404;-85
2023/09/25 16:27:14;;;;;;;1.13;1.03;;;24.20;53.10;;;;;;6218789;23;20446;-85
2023/09/25 16:29:50;;;;;;;4.93;1.27;;;24.20;53.40;;;;;;6219149;23;20486;-85
2023/09/25 16:32:38;;;;;;;1.60;1.50;;;24.10;53.60;;;;;;6244398;23;20935;-87
2023/09/25 16:35:37;;;;;;;2.77;2.20;;;23.90;54.00;;;;;;6222980;23;20400;-86
2023/09/25 16:38:13;;;;;;;1.93;1.67;;;23.80;54.50;;;;;;6282140;22;20508;-85
2023/09/25 16:40:56;;;;;;;3.23;2.00;;;23.90;54.80;;;;;;6328751;22;20801;-86
2023/09/25 16:43:48;;;;;;;1.30;1.20;;;23.80;55.20;;;;;;6333105;22;20409;-85
2023/09/25 16:47:15;;;;;;;2.27;1.60;;;23.60;54.80;;;;;;6333427;22;20489;-88
2023/09/25 16:49:57;;;;;;;1.70;1.60;;;23.50;55.10;;;;;;6334007;22;20513;-87
2023/09/25 16:52:33;;;;;;;2.50;1.60;;;23.50;55.20;;;;;;6334149;22;21039;-87
2023/09/25 16:55:07;;;;;;;2.50;1.50;;;23.30;55.30;;;;;;6335382;22;20420;-87
2023/09/25 16:57:50;;;;;;;1.60;1.50;;;23.30;56.00;;;;;;6335653;22;20402;-84
2023/09/25 17:00:35;;;;;;;1.60;1.50;;;23.20;56.20;;;;;;6333494;22;20409;-87
2023/09/25 17:03:33;;;;;;;1.87;1.50;;;23.10;56.50;;;;;;6334905;22;20711;-86
2023/09/25 17:06:15;;;;;;;1.40;1.30;;;23.10;56.80;;;;;;6335293;22;20816;-89
2023/09/25 17:08:55;;;;;;;1.47;1.30;;;23.00;57.10;;;;;;6338278;22;20441;-88
2023/09/25 17:11:45;;;;;;;2.50;1.43;;;22.90;56.90;;;;;;6335361;22;20390;-85
2023/09/25 17:14:21;;;;;;;2.13;1.30;;;22.80;57.60;;;;;;6344532;22;20423;-88
2023/09/25 17:17:03;;;;;;;2.17;1.80;;;22.60;57.70;;;;;;6335270;22;20433;-87
2023/09/25 17:20:27;;;;;;;2.10;1.53;;;22.60;57.80;;;;;;6339355;22;20409;-87
2023/09/25 17:23:45;;;;;;;2.00;1.63;;;22.60;57.70;;;;;;6323219;22;20408;-90
2023/09/25 17:26:23;;;;;;;4.30;2.60;;;22.60;57.90;;;;;;6334328;22;20512;-86
2023/09/25 17:29:07;;;;;;;2.27;1.50;;;22.50;58.10;;;;;;6331187;22;20830;-86
2023/09/25 17:31:45;;;;;;;2.00;1.60;;;22.40;58.30;;;;;;6332820;22;20814;-88
2023/09/25 17:38:34;;;;;;;2.23;1.73;;;22.40;58.50;;;;;;6300679;22;20388;-86
2023/09/25 17:51:01;;;;;;;2.53;2.10;;;22.30;59.30;;;;;;6238835;22;20463;-87
2023/09/25 17:54:08;;;;;;;2.70;1.80;;;22.10;59.90;;;;;;6273328;22;20923;-85
2023/09/25 17:57:07;;;;;;;1.53;1.33;;;22.10;60.40;;;;;;6271062;22;21027;-85
2023/09/25 18:00:53;;;;;;;2.20;1.73;;;22.10;61.30;;;;;;6252247;23;20415;-85
2023/09/25 18:03:49;;;;;;;1.60;1.50;;;22.00;62.10;;;;;;6246175;22;20404;-85
2023/09/25 18:06:47;;;;;;;1.83;1.63;;;21.90;63.10;;;;;;6251121;22;20426;-87
2023/09/25 18:09:36;;;;;;;2.33;1.67;;;21.90;63.60;;;;;;6277059;22;20458;-87
2023/09/25 18:12:35;;;;;;;2.00;1.80;;;21.80;64.50;;;;;;6267600;22;21132;-90
2023/09/25 18:15:23;;;;;;;4.73;2.33;;;21.70;65.00;;;;;;6294409;22;20490;-89
2023/09/25 18:17:55;;;;;;;4.10;1.97;;;21.60;66.10;;;;;;6296137;22;20399;-88
2023/09/25 18:20:41;;;;;;;2.43;2.23;;;21.80;67.40;;;;;;6286449;22;20405;-87
2023/09/25 18:23:45;;;;;;;4.40;2.17;;;21.60;67.40;;;;;;6262517;22;20387;-88
2023/09/25 18:26:58;;;;;;;2.40;2.03;;;21.50;68.20;;;;;;6285410;22;20967;-86
2023/09/25 18:30:10;;;;;;;2.67;1.87;;;21.50;69.00;;;;;;6272960;22;20453;-86
2023/09/25 18:33:03;;;;;;;3.13;2.17;;;21.60;69.10;;;;;;6224747;23;20865;-85
2023/09/25 18:41:27;;;;;;;1.57;1.47;;;21.40;70.60;;;;;;6277078;22;20537;-86
2023/09/25 18:44:29;;;;;;;2.93;2.63;;;21.40;71.80;;;;;;6254592;22;20411;-86
2023/09/25 18:47:23;;;;;;;3.70;2.17;;;21.30;72.20;;;;;;6122002;23;21289;-89
2023/09/25 18:50:25;;;;;;;2.80;2.07;;;21.20;72.70;;;;;;6120863;23;20521;-88
2023/09/25 18:53:22;;;;;;;;;;;;;;;;;;;;;
2023/09/25 18:56:20;;;;;;;3.13;2.30;;;21.30;72.60;;;;;;6121792;23;20725;-88
2023/09/25 18:59:22;;;;;;;2.67;2.47;;;21.10;73.30;;;;;;6118734;23;20466;-88
2023/09/25 19:05:06;;;;;;;4.03;2.00;;;21.20;75.20;;;;;;6112654;23;20490;-87
2023/09/25 19:07:49;;;;;;;3.33;2.50;;;21.20;75.10;;;;;;6095000;23;20419;-85
2023/09/25 19:10:38;;;;;;;2.50;2.30;;;21.00;75.70;;;;;;6097884;23;20464;-86